Time;durP1;ratioP1;P1;durP2;ratioP2;P2;SDS_P1;SDS_P2;PMS_P1;PMS_P2;Temp;Humidity;BMP_temperature;BMP_pressure;BME280_temperature;BME280_humidity;BME280_pressure;Samples;Min_cycle;Max_cycle;Signal;HPM_P1;HPM_P2
2022/11/05 00:10:29;;;;;;;13.85;4.00;;;6.70;99.90;;;;;;6210826;23;20024;-81
2022/11/05 00:18:26;;;;;;;11.50;4.10;;;6.60;99.90;;;;;;6185063;23;20017;-81
2022/11/05 00:20:51;;;;;;;11.50;3.35;;;6.70;99.90;;;;;;6185041;23;20032;-81
2022/11/05 00:26:04;;;;;;;11.40;3.13;;;6.60;99.90;;;;;;6211857;23;20048;-81
2022/11/05 00:28:30;;;;;;;14.60;3.72;;;6.50;99.90;;;;;;6184842;23;20487;-81
2022/11/05 00:31:02;;;;;;;7.75;3.50;;;6.50;99.90;;;;;;6210940;23;20058;-81
2022/11/05 00:33:27;;;;;;;8.95;3.22;;;6.50;99.90;;;;;;6184358;23;20487;-81
2022/11/05 00:35:53;;;;;;;10.63;3.88;;;6.40;99.90;;;;;;6210808;23;20017;-81
2022/11/05 00:38:19;;;;;;;7.28;3.00;;;6.40;99.90;;;;;;6211440;23;20024;-81
2022/11/05 00:40:45;;;;;;;12.52;3.55;;;6.40;99.90;;;;;;6184975;23;20445;-81
2022/11/05 00:45:55;;;;;;;7.85;2.80;;;6.30;99.90;;;;;;6211784;23;20012;-81
2022/11/05 00:51:06;;;;;;;11.50;3.30;;;6.20;99.90;;;;;;6184436;23;20036;-80
2022/11/05 00:53:31;;;;;;;9.30;2.63;;;6.20;99.90;;;;;;6211614;23;20138;-81
2022/11/05 00:55:57;;;;;;;8.75;2.97;;;6.20;99.90;;;;;;6210792;23;20043;-81
2022/11/05 00:58:23;;;;;;;7.40;2.60;;;6.20;99.90;;;;;;6185048;23;20016;-80
2022/11/05 01:00:52;;;;;;;8.10;2.30;;;6.20;99.90;;;;;;6211173;23;20096;-81
2022/11/05 01:03:20;;;;;;;9.00;2.45;;;6.20;99.90;;;;;;6184078;23;20020;-81
2022/11/05 01:05:50;;;;;;;8.75;2.40;;;6.20;99.90;;;;;;6184716;23;20020;-81
2022/11/05 01:08:18;;;;;;;8.90;1.95;;;6.20;99.90;;;;;;6210810;23;20039;-80
2022/11/05 01:10:46;;;;;;;8.20;2.60;;;6.20;99.90;;;;;;6159194;23;20020;-81
2022/11/05 01:13:15;;;;;;;11.77;2.63;;;6.20;99.90;;;;;;6211706;23;20076;-80
2022/11/05 01:15:41;;;;;;;10.10;2.70;;;6.20;99.90;;;;;;6184562;23;20009;-80
2022/11/05 01:18:07;;;;;;;5.93;2.30;;;6.20;99.90;;;;;;6184208;23;20039;-81
2022/11/05 01:20:32;;;;;;;9.05;2.80;;;6.10;99.90;;;;;;6159424;23;20441;-80
2022/11/05 01:22:58;;;;;;;9.10;2.70;;;6.20;99.90;;;;;;6210420;23;20362;-81
2022/11/05 01:25:24;;;;;;;9.05;3.00;;;6.10;99.90;;;;;;6183529;23;20349;-81
2022/11/05 01:27:50;;;;;;;11.30;2.58;;;6.10;99.90;;;;;;6183607;23;20017;-80
2022/11/05 01:30:15;;;;;;;10.75;2.78;;;6.10;99.90;;;;;;6210186;23;20392;-81
2022/11/05 01:32:41;;;;;;;4.13;2.08;;;6.10;99.90;;;;;;6210949;23;20020;-80
2022/11/05 01:35:11;;;;;;;8.30;1.95;;;6.10;99.90;;;;;;6183594;23;20242;-81
2022/11/05 01:37:36;;;;;;;5.20;2.40;;;6.10;99.90;;;;;;6210471;23;20009;-81
2022/11/05 01:40:03;;;;;;;7.43;2.35;;;6.10;99.90;;;;;;6209680;23;20063;-81
2022/11/05 01:42:32;;;;;;;11.00;2.53;;;6.10;99.90;;;;;;6208440;23;20056;-80
2022/11/05 01:45:02;;;;;;;5.85;2.25;;;6.00;99.90;;;;;;6183228;23;20020;-81
2022/11/05 01:47:41;;;;;;;7.50;2.10;;;6.00;99.90;;;;;;6184417;23;20083;-80
2022/11/05 01:50:27;;;;;;;5.82;1.92;;;5.90;99.90;;;;;;6183316;23;20020;-81
2022/11/05 01:53:01;;;;;;;7.68;2.10;;;5.90;99.90;;;;;;6210846;23;20015;-80
2022/11/05 01:55:32;;;;;;;7.80;2.38;;;5.90;99.90;;;;;;6184658;23;20040;-81
2022/11/05 01:58:00;;;;;;;5.78;2.22;;;6.10;99.90;;;;;;6183966;23;20070;-80
2022/11/05 02:00:26;;;;;;;8.65;1.80;;;5.90;99.90;;;;;;6183640;23;20024;-80
2022/11/05 02:02:52;;;;;;;7.35;1.80;;;5.90;99.90;;;;;;6209895;23;20040;-80
2022/11/05 02:05:18;;;;;;;7.95;2.20;;;5.90;99.90;;;;;;6183293;23;20102;-80
2022/11/05 02:07:45;;;;;;;6.97;2.13;;;5.90;99.90;;;;;;6183814;23;20017;-80
2022/11/05 02:10:14;;;;;;;8.98;2.08;;;5.80;99.90;;;;;;6210960;23;20017;-80
2022/11/05 02:12:44;;;;;;;6.55;1.70;;;5.90;99.90;;;;;;6183855;23;20017;-80
2022/11/05 02:15:12;;;;;;;8.02;2.30;;;5.90;99.90;;;;;;6183089;23;20020;-80
2022/11/05 02:17:55;;;;;;;8.90;2.97;;;5.80;99.90;;;;;;6183057;23;20027;-80
2022/11/05 02:20:26;;;;;;;5.45;2.30;;;5.80;99.90;;;;;;6182620;23;20019;-80
2022/11/05 02:22:55;;;;;;;10.32;2.78;;;5.80;99.90;;;;;;6183258;23;20042;-80
2022/11/05 02:25:45;;;;;;;12.25;2.70;;;5.80;99.90;;;;;;6183745;23;20020;-80
2022/11/05 02:28:28;;;;;;;11.57;2.90;;;5.80;99.90;;;;;;6183039;23;20009;-80
2022/11/05 02:31:22;;;;;;;6.78;2.80;;;5.80;99.90;;;;;;6210013;23;20445;-80
2022/11/05 02:33:59;;;;;;;8.50;3.00;;;5.80;99.90;;;;;;6182870;23;20382;-80
2022/11/05 02:36:27;;;;;;;7.10;2.85;;;5.80;99.90;;;;;;6211004;23;20441;-80
2022/11/05 02:39:21;;;;;;;7.88;3.55;;;5.70;99.90;;;;;;6182566;23;20052;-80
2022/11/05 02:41:55;;;;;;;10.38;3.35;;;5.70;99.90;;;;;;6158960;23;20024;-80
2022/11/05 02:44:24;;;;;;;13.93;3.90;;;5.70;99.90;;;;;;6210619;23;20024;-80
2022/11/05 02:47:02;;;;;;;8.00;3.42;;;5.70;99.90;;;;;;6209813;23;20474;-80
2022/11/05 02:50:12;;;;;;;10.98;3.75;;;5.70;99.90;;;;;;6183019;23;20024;-80
2022/11/05 02:52:53;;;;;;;9.07;3.58;;;5.60;99.90;;;;;;6183412;23;20127;-80
2022/11/05 02:55:37;;;;;;;7.18;2.95;;;5.60;99.90;;;;;;6210249;23;20673;-80
2022/11/05 02:58:04;;;;;;;8.52;3.20;;;5.60;99.90;;;;;;6182115;23;20059;-80
2022/11/05 03:00:45;;;;;;;7.57;3.30;;;5.80;99.90;;;;;;6158299;23;20013;-79
2022/11/05 03:03:32;;;;;;;8.13;3.25;;;5.60;99.90;;;;;;6208923;23;20044;-80
2022/11/05 03:06:06;;;;;;;8.90;2.95;;;5.60;99.90;;;;;;6182846;23;20013;-80
2022/11/05 03:08:45;;;;;;;6.97;2.55;;;5.60;99.90;;;;;;6183760;23;20016;-80
2022/11/05 03:11:15;;;;;;;8.32;2.70;;;5.60;99.90;;;;;;6183122;23;20005;-80
2022/11/05 03:14:02;;;;;;;9.48;2.92;;;5.60;99.90;;;;;;6209119;23;20127;-80
2022/11/05 03:16:41;;;;;;;9.27;2.92;;;5.60;99.90;;;;;;6210030;23;20067;-80
2022/11/05 03:19:27;;;;;;;8.57;2.75;;;5.60;99.90;;;;;;6181414;23;20382;-81
2022/11/05 03:22:01;;;;;;;12.30;2.45;;;5.60;99.90;;;;;;6182476;23;20013;-80
2022/11/05 03:24:32;;;;;;;8.50;2.47;;;5.60;99.90;;;;;;6182791;23;20019;-80
2022/11/05 03:27:07;;;;;;;5.35;2.13;;;5.60;99.90;;;;;;6183036;23;20012;-80
2022/11/05 03:29:48;;;;;;;6.32;2.53;;;5.60;99.90;;;;;;6209293;23;20012;-80
2022/11/05 03:32:16;;;;;;;8.48;3.08;;;5.60;99.90;;;;;;6208686;23;20023;-80
2022/11/05 03:34:46;;;;;;;6.93;1.92;;;5.60;99.90;;;;;;6210098;23;20328;-80
2022/11/05 03:37:14;;;;;;;7.63;2.38;;;5.60;99.90;;;;;;6209912;23;20009;-80
2022/11/05 03:39:47;;;;;;;6.20;2.05;;;5.60;99.90;;;;;;6209800;23;20091;-80
2022/11/05 03:42:16;;;;;;;7.78;2.17;;;5.60;99.90;;;;;;6182759;23;20433;-80
2022/11/05 03:44:46;;;;;;;6.05;2.45;;;5.60;99.90;;;;;;6182841;23;20012;-80
2022/11/05 03:47:17;;;;;;;6.00;1.80;;;5.60;99.90;;;;;;6157584;23;20062;-80
2022/11/05 03:49:59;;;;;;;8.77;2.28;;;5.60;99.90;;;;;;6183044;23;20067;-80
2022/11/05 03:52:32;;;;;;;10.10;2.70;;;5.60;99.90;;;;;;6208589;23;20055;-80
2022/11/05 03:54:58;;;;;;;5.07;2.00;;;5.60;99.90;;;;;;6182559;23;20051;-80
2022/11/05 03:57:33;;;;;;;8.60;2.30;;;5.50;99.90;;;;;;6183005;23;20012;-80
2022/11/05 03:59:59;;;;;;;7.18;2.80;;;5.50;99.90;;;;;;6208654;23;20460;-80
2022/11/05 04:02:25;;;;;;;8.30;2.03;;;5.50;99.90;;;;;;6206851;23;20016;-80
2022/11/05 04:04:52;;;;;;;5.43;2.13;;;5.50;99.90;;;;;;6209615;23;20063;-80
2022/11/05 04:17:05;;;;;;;7.93;2.70;;;5.50;99.90;;;;;;6183911;23;20304;-80
2022/11/05 04:18:20;;;;;;;9.00;2.65;;;5.50;99.90;;;;;;6211364;23;20020;-80
2022/11/05 04:26:15;;;;;;;9.60;3.00;;;5.50;99.90;;;;;;6184705;23;20044;-80
2022/11/05 04:31:29;;;;;;;9.23;3.10;;;5.40;99.90;;;;;;6064994;23;20022;-80
2022/11/05 04:33:55;;;;;;;7.55;2.78;;;5.50;99.90;;;;;;6065274;23;20085;-80
2022/11/05 04:36:20;;;;;;;5.47;2.42;;;5.50;99.90;;;;;;6066294;23;20023;-80
2022/11/05 04:38:46;;;;;;;7.78;3.15;;;5.50;99.90;;;;;;6065518;23;20091;-80
2022/11/05 04:41:16;;;;;;;7.65;2.78;;;5.50;99.90;;;;;;6089896;23;20093;-80
2022/11/05 04:43:42;;;;;;;9.13;2.88;;;5.50;99.90;;;;;;6090176;23;20038;-80
2022/11/05 04:46:08;;;;;;;7.85;3.08;;;5.50;99.90;;;;;;6064655;23;20150;-80
2022/11/05 04:48:34;;;;;;;8.32;3.38;;;5.50;99.90;;;;;;6090215;23;20093;-80
2022/11/05 04:51:00;;;;;;;11.88;3.55;;;5.40;99.90;;;;;;6089249;23;20014;-80
2022/11/05 04:53:25;;;;;;;9.50;3.92;;;5.50;99.90;;;;;;6065688;23;20465;-80
2022/11/05 04:55:51;;;;;;;7.35;3.33;;;5.40;99.90;;;;;;6065703;23;20018;-80
2022/11/05 04:58:17;;;;;;;9.70;3.33;;;5.50;99.90;;;;;;6042115;23;20018;-80
2022/11/05 05:00:43;;;;;;;9.02;3.40;;;5.40;99.90;;;;;;6087996;23;20093;-80
2022/11/05 05:03:08;;;;;;;6.35;3.00;;;5.40;99.90;;;;;;6089636;23;20469;-80
2022/11/05 05:05:34;;;;;;;6.32;3.22;;;5.40;99.90;;;;;;6065340;23;20073;-80
2022/11/05 05:08:04;;;;;;;8.07;3.30;;;5.30;99.90;;;;;;6100454;23;20013;-79
2022/11/05 05:10:31;;;;;;;9.52;3.58;;;5.30;99.90;;;;;;6210723;23;20028;-80
2022/11/05 05:12:56;;;;;;;7.32;3.20;;;5.30;99.90;;;;;;6158845;23;20013;-79
2022/11/05 05:15:22;;;;;;;9.93;3.47;;;5.30;99.90;;;;;;6209954;23;20016;-80
2022/11/05 05:17:51;;;;;;;9.98;4.13;;;5.30;99.90;;;;;;6159669;23;20202;-81
2022/11/05 05:23:02;;;;;;;9.70;3.70;;;5.30;99.90;;;;;;6183530;23;20023;-80
2022/11/05 05:25:28;;;;;;;9.23;4.10;;;5.30;99.90;;;;;;6159237;23;20009;-80
2022/11/05 05:27:57;;;;;;;9.70;3.72;;;5.30;99.90;;;;;;6210039;23;20016;-80
2022/11/05 05:30:23;;;;;;;14.30;4.60;;;5.30;99.90;;;;;;6210354;23;20306;-80
2022/11/05 05:32:49;;;;;;;12.40;4.35;;;5.30;99.90;;;;;;6210489;23;20017;-80
2022/11/05 05:35:15;;;;;;;9.10;4.43;;;5.30;99.90;;;;;;6210438;23;20078;-80
2022/11/05 05:37:41;;;;;;;11.23;4.47;;;5.30;99.90;;;;;;6210290;23;20428;-80
2022/11/05 05:40:08;;;;;;;11.35;4.97;;;5.30;99.90;;;;;;6182896;23;20044;-80
2022/11/05 05:42:33;;;;;;;9.00;4.32;;;5.30;99.90;;;;;;6210281;23;20433;-80
2022/11/05 05:44:59;;;;;;;11.25;5.32;;;5.30;99.90;;;;;;6182522;23;20012;-81
2022/11/05 05:47:25;;;;;;;10.75;4.70;;;5.30;99.90;;;;;;6183105;23;20538;-80
2022/11/05 05:49:51;;;;;;;9.75;4.57;;;5.40;99.90;;;;;;6183842;23;20024;-80
2022/11/05 05:52:16;;;;;;;7.95;3.90;;;5.30;99.90;;;;;;6210984;23;20013;-80
2022/11/05 05:54:42;;;;;;;8.85;3.90;;;5.30;99.90;;;;;;6183799;23;20437;-80
2022/11/05 05:57:07;;;;;;;9.30;4.60;;;5.30;99.90;;;;;;6210607;23;20326;-80
2022/11/05 05:59:33;;;;;;;10.15;4.35;;;5.30;99.90;;;;;;6210522;23;20020;-79
2022/11/05 06:01:59;;;;;;;11.57;4.65;;;5.30;99.90;;;;;;6212961;23;20100;-81
2022/11/05 06:04:25;;;;;;;13.75;5.10;;;5.30;99.90;;;;;;6212791;23;20079;-81
2022/11/05 06:06:51;;;;;;;11.85;4.80;;;5.30;99.90;;;;;;6184900;23;20020;-81
2022/11/05 06:09:16;;;;;;;12.77;5.25;;;5.30;99.90;;;;;;6184847;23;20017;-81
2022/11/05 06:11:42;;;;;;;11.45;5.03;;;5.30;99.90;;;;;;6182882;23;20021;-79
2022/11/05 06:14:11;;;;;;;11.00;4.82;;;5.40;99.90;;;;;;6159468;23;20019;-78
2022/11/05 06:16:38;;;;;;;7.95;4.13;;;5.40;99.90;;;;;;6184281;23;20036;-79
2022/11/05 06:19:05;;;;;;;10.00;4.90;;;5.30;99.90;;;;;;6210665;23;20024;-80
2022/11/05 06:21:31;;;;;;;14.68;7.03;;;5.40;99.90;;;;;;6210984;23;20013;-79
2022/11/05 06:23:58;;;;;;;17.50;9.05;;;5.40;99.90;;;;;;6183564;23;20009;-80
2022/11/05 06:26:24;;;;;;;15.68;7.85;;;5.40;99.90;;;;;;6183446;23;20059;-80
2022/11/05 06:28:49;;;;;;;14.70;6.97;;;5.50;99.90;;;;;;6182849;23;20024;-79
2022/11/05 06:31:15;;;;;;;13.43;8.95;;;5.50;99.90;;;;;;6210377;23;20044;-79
2022/11/05 06:33:40;;;;;;;14.10;7.40;;;5.50;99.90;;;;;;6209932;23;20079;-80
2022/11/05 06:36:11;;;;;;;14.93;9.07;;;5.70;99.90;;;;;;6210541;23;20020;-79
2022/11/05 06:38:37;;;;;;;16.23;8.98;;;5.60;99.90;;;;;;6183494;23;20016;-79
2022/11/05 06:41:03;;;;;;;14.45;7.60;;;5.50;99.90;;;;;;6182918;23;20055;-79
2022/11/05 06:43:29;;;;;;;15.48;9.65;;;5.50;99.90;;;;;;6183884;23;20021;-80
2022/11/05 06:45:55;;;;;;;14.23;8.75;;;5.50;99.90;;;;;;6183554;23;20099;-80
2022/11/05 06:48:20;;;;;;;14.32;7.35;;;5.50;99.90;;;;;;6183128;23;20449;-79
2022/11/05 06:50:46;;;;;;;10.75;6.28;;;5.50;99.90;;;;;;6183933;23;20044;-80
2022/11/05 06:53:13;;;;;;;14.23;7.22;;;5.40;99.90;;;;;;6183214;23;20013;-80
2022/11/05 06:55:38;;;;;;;17.15;7.13;;;5.40;99.90;;;;;;6183236;23;20044;-79
2022/11/05 06:58:04;;;;;;;11.30;5.75;;;5.40;99.90;;;;;;6183530;23;20016;-79
2022/11/05 07:00:30;;;;;;;10.88;6.90;;;5.40;99.90;;;;;;6183319;23;20389;-80
2022/11/05 07:03:03;;;;;;;11.57;6.13;;;5.40;99.90;;;;;;6182261;23;20009;-79
2022/11/05 07:05:29;;;;;;;11.18;5.65;;;5.40;99.90;;;;;;6210637;23;20769;-80
2022/11/05 07:07:55;;;;;;;11.48;6.32;;;5.40;99.90;;;;;;6183484;23;20017;-80
2022/11/05 07:10:20;;;;;;;10.70;7.07;;;5.40;99.90;;;;;;6182906;23;20019;-80
2022/11/05 07:12:46;;;;;;;11.63;7.00;;;5.40;99.90;;;;;;6183531;23;20012;-79
2022/11/05 07:15:12;;;;;;;16.23;6.55;;;5.40;99.90;;;;;;6182896;23;20094;-79
2022/11/05 07:17:38;;;;;;;14.07;8.63;;;5.40;99.90;;;;;;6209618;23;20191;-79
2022/11/05 07:20:06;;;;;;;16.02;9.98;;;5.40;99.90;;;;;;6209046;23;20012;-80
2022/11/05 07:22:32;;;;;;;14.20;7.90;;;5.40;99.90;;;;;;6181846;23;20012;-79
2022/11/05 07:24:57;;;;;;;12.50;6.20;;;5.40;99.90;;;;;;6208172;23;20008;-80
2022/11/05 07:27:23;;;;;;;15.77;8.55;;;5.40;99.90;;;;;;6182456;23;20390;-80
2022/11/05 07:29:49;;;;;;;11.85;7.18;;;5.40;99.90;;;;;;6182328;23;20428;-79
2022/11/05 07:32:14;;;;;;;12.20;7.18;;;5.40;99.90;;;;;;6209934;23;20099;-80
2022/11/05 07:34:40;;;;;;;12.13;7.47;;;5.50;99.90;;;;;;6182436;23;20039;-80
2022/11/05 07:37:05;;;;;;;14.13;6.97;;;5.50;99.90;;;;;;6209746;23;20051;-80
2022/11/05 07:39:31;;;;;;;13.35;6.38;;;5.50;99.90;;;;;;6208172;23;20036;-80
2022/11/05 07:41:56;;;;;;;13.75;6.22;;;5.50;99.90;;;;;;6207958;23;20008;-82
2022/11/05 07:44:22;;;;;;;12.75;6.32;;;5.50;99.90;;;;;;6157769;23;20384;-81
2022/11/05 07:46:51;;;;;;;9.13;5.45;;;5.50;99.90;;;;;;6211814;23;20050;-81
2022/11/05 07:49:17;;;;;;;10.43;5.28;;;5.50;99.90;;;;;;6210405;23;20393;-82
2022/11/05 07:51:43;;;;;;;10.35;5.72;;;5.60;99.90;;;;;;6210754;23;20009;-81
2022/11/05 07:54:09;;;;;;;16.10;6.35;;;5.60;99.90;;;;;;6184374;23;20045;-82
2022/11/05 07:56:35;;;;;;;13.40;5.97;;;5.70;99.90;;;;;;6186115;23;20441;-82
2022/11/05 07:59:00;;;;;;;9.80;5.43;;;5.70;99.90;;;;;;6185708;23;20012;-82
2022/11/05 08:01:26;;;;;;;10.85;5.50;;;5.70;99.90;;;;;;6184465;23;20445;-81
2022/11/05 08:03:51;;;;;;;9.32;5.38;;;5.70;99.90;;;;;;6210028;23;20017;-82
2022/11/05 08:06:17;;;;;;;9.65;5.15;;;5.80;99.90;;;;;;6183811;23;20021;-82
2022/11/05 08:08:43;;;;;;;8.38;5.18;;;5.80;99.90;;;;;;6207095;23;20013;-82
2022/11/05 08:11:11;;;;;;;10.15;4.80;;;5.90;99.90;;;;;;6182661;23;20059;-82
2022/11/05 08:13:37;;;;;;;11.48;5.45;;;5.90;99.90;;;;;;6212429;23;20016;-82
2022/11/05 08:16:03;;;;;;;13.27;5.75;;;6.00;99.90;;;;;;6183019;23;20013;-81
2022/11/05 08:18:30;;;;;;;10.98;5.60;;;6.10;99.90;;;;;;6208587;23;20369;-82
2022/11/05 08:21:05;;;;;;;9.25;5.88;;;6.10;99.90;;;;;;6212402;23;20016;-82
2022/11/05 08:23:31;;;;;;;13.27;5.20;;;6.20;99.90;;;;;;6185710;23;20020;-82
2022/11/05 08:25:57;;;;;;;9.85;5.47;;;6.20;99.90;;;;;;6212109;23;20027;-81
2022/11/05 08:28:24;;;;;;;17.20;5.95;;;6.30;99.90;;;;;;6212083;23;20012;-80
2022/11/05 08:30:55;;;;;;;15.52;6.20;;;6.30;99.90;;;;;;6211795;23;20016;-79
2022/11/05 08:33:22;;;;;;;11.55;6.25;;;6.40;99.90;;;;;;6210710;23;20429;-79
2022/11/05 08:35:48;;;;;;;8.77;5.93;;;6.50;99.90;;;;;;6212430;23;20008;-78
2022/11/05 08:38:16;;;;;;;9.35;5.63;;;6.60;99.90;;;;;;6211596;23;20012;-79
2022/11/05 08:40:44;;;;;;;8.68;4.90;;;6.70;99.90;;;;;;6210175;23;20353;-78
2022/11/05 08:43:11;;;;;;;12.32;5.45;;;6.70;99.90;;;;;;6183179;23;20028;-78
2022/11/05 08:45:37;;;;;;;11.13;4.80;;;6.80;99.90;;;;;;6181968;23;20055;-79
2022/11/05 08:48:06;;;;;;;10.80;5.32;;;6.90;99.90;;;;;;6208072;23;20012;-79
2022/11/05 08:50:33;;;;;;;10.70;5.32;;;7.00;99.90;;;;;;6183694;23;20009;-79
2022/11/05 08:52:58;;;;;;;10.55;5.55;;;7.00;99.90;;;;;;6181858;23;20083;-79
2022/11/05 08:55:24;;;;;;;8.00;4.43;;;7.00;99.90;;;;;;6211585;23;20076;-79
2022/11/05 08:58:04;;;;;;;8.48;4.85;;;7.10;99.90;;;;;;6210207;23;20009;-79
2022/11/05 09:00:32;;;;;;;10.80;5.15;;;7.20;99.90;;;;;;6210406;23;20016;-81
2022/11/05 09:02:59;;;;;;;12.93;5.10;;;7.20;99.90;;;;;;6183318;23;20025;-80
2022/11/05 09:05:26;;;;;;;9.73;4.72;;;7.30;99.90;;;;;;6182722;23;20020;-80
2022/11/05 09:07:51;;;;;;;10.25;4.72;;;7.40;99.90;;;;;;6183861;23;20008;-80
2022/11/05 09:10:17;;;;;;;11.15;6.13;;;7.40;99.90;;;;;;6210503;23;20063;-80
2022/11/05 09:12:43;;;;;;;8.15;4.80;;;7.50;99.90;;;;;;6184765;23;20063;-79
2022/11/05 09:15:10;;;;;;;11.15;5.03;;;7.50;99.90;;;;;;6161081;23;20119;-79
2022/11/05 09:17:36;;;;;;;11.02;4.95;;;7.60;99.90;;;;;;6185249;23;20009;-79
2022/11/05 09:20:03;;;;;;;11.98;4.72;;;7.70;99.90;;;;;;6185004;23;20036;-79
2022/11/05 09:22:28;;;;;;;9.23;4.95;;;7.70;99.90;;;;;;6211876;23;20013;-79
2022/11/05 09:24:54;;;;;;;8.15;4.80;;;7.80;99.90;;;;;;6160555;23;20023;-79
2022/11/05 09:27:20;;;;;;;8.65;4.57;;;7.90;99.90;;;;;;6185938;23;20058;-79
2022/11/05 09:29:45;;;;;;;10.52;5.07;;;7.90;99.90;;;;;;6212169;23;20004;-79
2022/11/05 09:32:11;;;;;;;11.02;4.70;;;8.00;99.90;;;;;;6211787;23;20016;-79
2022/11/05 09:34:37;;;;;;;7.40;4.03;;;8.10;99.90;;;;;;6184837;23;20017;-80
2022/11/05 09:37:02;;;;;;;9.10;4.10;;;8.30;99.90;;;;;;6210249;23;20069;-80
2022/11/05 09:39:28;;;;;;;9.48;3.72;;;8.40;99.90;;;;;;6212035;23;20067;-80
2022/11/05 09:42:01;;;;;;;5.88;3.60;;;8.60;99.90;;;;;;6212057;23;20039;-80
2022/11/05 09:44:42;;;;;;;11.65;3.40;;;8.80;99.90;;;;;;6185296;23;20024;-79
2022/11/05 09:47:20;;;;;;;10.23;3.17;;;9.00;99.90;;;;;;6185680;23;20052;-80
2022/11/05 09:49:52;;;;;;;7.10;3.20;;;9.20;99.90;;;;;;6209391;23;20469;-80
2022/11/05 09:52:23;;;;;;;8.02;3.08;;;9.40;99.90;;;;;;6184997;23;20314;-79
2022/11/05 09:54:49;;;;;;;6.95;2.60;;;9.60;99.90;;;;;;6184690;23;20016;-80
2022/11/05 09:57:29;;;;;;;7.20;2.63;;;9.70;99.90;;;;;;6184913;23;20017;-80
2022/11/05 09:59:58;;;;;;;7.28;2.35;;;9.90;99.90;;;;;;6184952;23;20016;-80
2022/11/05 10:02:29;;;;;;;7.15;2.40;;;10.00;99.90;;;;;;6183537;23;20379;-80
2022/11/05 10:04:59;;;;;;;9.05;2.90;;;10.10;99.90;;;;;;6182940;23;20012;-79
2022/11/05 10:07:28;;;;;;;8.10;2.38;;;10.30;99.90;;;;;;6183395;23;20020;-80
2022/11/05 10:10:01;;;;;;;6.43;2.67;;;10.50;99.90;;;;;;6183621;23;20013;-79
2022/11/05 10:12:34;;;;;;;8.40;2.10;;;10.50;99.90;;;;;;6210722;23;20079;-80
2022/11/05 10:15:00;;;;;;;6.88;2.28;;;10.60;99.90;;;;;;6184160;23;20440;-80
2022/11/05 10:17:27;;;;;;;6.43;2.40;;;10.80;99.90;;;;;;6211774;23;20008;-80
2022/11/05 10:20:15;;;;;;;4.45;2.03;;;10.90;99.90;;;;;;6159100;23;20017;-80
2022/11/05 10:22:41;;;;;;;5.50;2.28;;;11.00;99.90;;;;;;6183412;23;20016;-80
2022/11/05 10:25:30;;;;;;;9.85;2.17;;;11.10;99.90;;;;;;6184567;23;20017;-79
2022/11/05 10:27:58;;;;;;;5.40;1.90;;;11.30;99.90;;;;;;6211813;23;20015;-80
2022/11/05 10:30:23;;;;;;;6.95;1.83;;;11.40;99.90;;;;;;6211732;23;20128;-80
2022/11/05 10:32:54;;;;;;;8.80;1.90;;;11.50;99.90;;;;;;6184076;23;20755;-80
2022/11/05 10:35:22;;;;;;;5.25;1.95;;;11.60;99.90;;;;;;6183027;23;20031;-80
2022/11/05 10:37:50;;;;;;;6.70;1.67;;;11.90;99.90;;;;;;6183365;23;20088;-81
2022/11/05 10:40:34;;;;;;;6.78;2.70;;;11.80;99.90;;;;;;6183126;23;20145;-81
2022/11/05 10:43:12;;;;;;;;;;;11.80;99.90;;;;;;6184997;23;20021;-81
2022/11/05 10:45:47;;;;;;;5.32;1.98;;;11.80;99.90;;;;;;6183148;23;19954;-81
2022/11/05 10:48:42;;;;;;;7.40;1.42;;;11.90;99.90;;;;;;6208408;23;20464;-82
2022/11/05 10:51:08;;;;;;;;;;;12.20;99.90;;;;;;6184526;23;20042;-82
2022/11/05 10:53:37;;;;;;;4.88;1.52;;;12.10;99.90;;;;;;6209990;23;20363;-81
2022/11/05 10:56:03;;;;;;;6.80;1.98;;;12.20;99.90;;;;;;6182281;23;20013;-81
2022/11/05 10:58:34;;;;;;;5.70;1.85;;;12.20;99.90;;;;;;6209410;23;20020;-79
2022/11/05 11:01:00;;;;;;;6.60;1.63;;;12.20;99.90;;;;;;6210253;23;20051;-80
2022/11/05 11:03:50;;;;;;;6.80;1.70;;;12.30;99.90;;;;;;6209226;23;20079;-81
2022/11/05 11:06:26;;;;;;;7.40;1.75;;;12.60;99.90;;;;;;6211457;23;20325;-81
2022/11/05 11:08:55;;;;;;;8.00;2.13;;;12.70;99.90;;;;;;6209453;23;20013;-80
2022/11/05 11:11:25;;;;;;;4.38;1.10;;;12.70;99.90;;;;;;6209519;23;20025;-81
2022/11/05 11:13:50;;;;;;;5.10;1.40;;;12.80;99.90;;;;;;6183955;23;20167;-81
2022/11/05 11:16:21;;;;;;;6.30;1.35;;;12.80;99.90;;;;;;6181973;23;20067;-81
2022/11/05 11:18:59;;;;;;;6.63;1.25;;;12.90;99.90;;;;;;6210037;23;20127;-80
2022/11/05 11:21:26;;;;;;;6.97;1.75;;;12.90;99.90;;;;;;6209680;23;20016;-80
2022/11/05 11:23:55;;;;;;;8.98;1.50;;;12.80;99.90;;;;;;6210800;23;20417;-80
2022/11/05 11:26:24;;;;;;;5.80;1.15;;;12.90;99.90;;;;;;6208694;23;20009;-80
2022/11/05 11:29:06;;;;;;;5.07;1.23;;;13.00;99.90;;;;;;6210879;23;20078;-80
2022/11/05 11:31:36;;;;;;;3.72;1.00;;;13.10;99.90;;;;;;6182996;23;20013;-81
2022/11/05 11:34:04;;;;;;;7.85;1.60;;;13.20;99.90;;;;;;6183558;23;20096;-80
2022/11/05 11:36:34;;;;;;;2.95;1.02;;;13.30;99.90;;;;;;6209622;23;20511;-81
2022/11/05 11:39:05;;;;;;;4.70;1.17;;;13.40;99.90;;;;;;6208830;23;20349;-81
2022/11/05 11:41:42;;;;;;;3.28;0.90;;;13.50;99.90;;;;;;6210017;23;20048;-81
2022/11/05 11:44:18;;;;;;;5.88;1.42;;;13.60;99.90;;;;;;6210544;23;20012;-81
2022/11/05 11:46:48;;;;;;;3.53;0.98;;;13.70;99.90;;;;;;6210047;23;20040;-82
2022/11/05 11:49:50;;;;;;;5.57;1.30;;;13.80;99.90;;;;;;6211936;23;20076;-86
2022/11/05 11:52:24;;;;;;;4.40;0.98;;;13.70;99.90;;;;;;6134000;23;20021;-83
2022/11/05 11:54:51;;;;;;;5.03;1.45;;;13.80;99.90;;;;;;6212265;23;20315;-83
2022/11/05 11:57:24;;;;;;;5.03;1.02;;;13.80;99.90;;;;;;6160442;23;20016;-83
2022/11/05 11:59:51;;;;;;;3.70;1.00;;;13.70;99.90;;;;;;6159949;23;20028;-81
2022/11/05 12:02:39;;;;;;;7.20;1.25;;;13.70;99.90;;;;;;6210635;23;20031;-82
2022/11/05 12:05:23;;;;;;;4.05;1.10;;;13.50;99.90;;;;;;6182171;23;20090;-83
2022/11/05 12:07:52;;;;;;;5.22;1.10;;;13.40;99.90;;;;;;6183706;23;20012;-83
2022/11/05 12:10:24;;;;;;;4.72;1.10;;;13.20;99.90;;;;;;6212439;23;20020;-84
2022/11/05 12:12:55;;;;;;;3.15;0.80;;;13.10;99.90;;;;;;6159821;23;20106;-84
2022/11/05 12:15:50;;;;;;;2.90;0.80;;;13.00;99.90;;;;;;6184469;23;20016;-85
2022/11/05 12:18:30;;;;;;;3.33;0.68;;;12.90;99.90;;;;;;6211068;23;20012;-85
2022/11/05 12:21:11;;;;;;;4.57;0.60;;;12.90;99.90;;;;;;6187611;23;20044;-86
2022/11/05 12:24:07;;;;;;;3.70;0.47;;;12.80;99.90;;;;;;6210774;23;20016;-83
2022/11/05 12:26:44;;;;;;;3.80;0.80;;;12.90;99.90;;;;;;6184336;23;20044;-81
2022/11/05 12:29:22;;;;;;;4.05;0.75;;;12.80;99.90;;;;;;6211144;23;20027;-86
2022/11/05 12:32:15;;;;;;;4.85;0.80;;;12.80;99.90;;;;;;6213097;23;20087;-85
2022/11/05 12:34:41;;;;;;;2.38;0.60;;;12.80;99.90;;;;;;6215643;23;20085;-85
2022/11/05 12:37:13;;;;;;;2.83;0.60;;;12.80;99.90;;;;;;6214569;23;20040;-84
2022/11/05 12:39:42;;;;;;;4.43;0.93;;;12.70;99.90;;;;;;6185813;23;20021;-85
2022/11/05 12:42:36;;;;;;;4.70;0.80;;;12.70;99.90;;;;;;6215064;23;20021;-86
2022/11/05 12:45:04;;;;;;;4.30;0.73;;;12.60;99.90;;;;;;6214671;23;20017;-85
2022/11/05 12:47:59;;;;;;;3.03;1.02;;;12.60;99.90;;;;;;6215222;23;20027;-85
2022/11/05 12:50:51;;;;;;;1.90;0.70;;;12.50;99.90;;;;;;6215024;23;20050;-85
2022/11/05 12:53:36;;;;;;;4.38;1.02;;;12.50;99.90;;;;;;6213984;23;20362;-85
2022/11/05 12:56:10;;;;;;;2.08;0.63;;;12.50;99.90;;;;;;6214775;23;20519;-85
2022/11/05 12:58:56;;;;;;;2.25;0.70;;;12.40;99.90;;;;;;6187892;23;20020;-86
2022/11/05 13:01:38;;;;;;;3.42;0.63;;;12.40;99.90;;;;;;6213617;23;20028;-85
2022/11/05 13:04:24;;;;;;;6.15;0.82;;;12.30;99.90;;;;;;6214247;23;20016;-85
2022/11/05 13:06:54;;;;;;;9.10;1.00;;;12.40;99.90;;;;;;6187351;23;20095;-86
2022/11/05 13:09:52;;;;;;;3.38;1.10;;;12.20;99.90;;;;;;6189453;23;20028;-86
2022/11/05 13:12:22;;;;;;;3.42;0.90;;;12.10;99.90;;;;;;6170502;23;20122;-84
2022/11/05 13:14:54;;;;;;;4.47;1.70;;;12.10;99.90;;;;;;6214512;23;20527;-82
2022/11/05 13:17:28;;;;;;;3.65;1.88;;;12.10;99.90;;;;;;6187295;23;20110;-82
2022/11/05 13:20:20;;;;;;;4.82;1.88;;;12.10;99.90;;;;;;6212898;23;20020;-84
2022/11/05 13:22:51;;;;;;;5.75;1.25;;;12.10;99.90;;;;;;6213323;23;20392;-84
2022/11/05 13:25:37;;;;;;;4.47;1.38;;;12.10;99.90;;;;;;6213566;23;20008;-84
2022/11/05 13:28:06;;;;;;;5.43;1.38;;;12.00;99.90;;;;;;6213368;23;20013;-84
2022/11/05 13:30:38;;;;;;;5.93;1.55;;;12.00;99.90;;;;;;6212759;23;20087;-84
2022/11/05 13:33:24;;;;;;;5.55;1.67;;;12.00;99.90;;;;;;6186133;23;20507;-85
2022/11/05 13:39:18;;;;;;;9.02;1.95;;;12.00;99.90;;;;;;6211638;23;20017;-84
2022/11/05 13:42:08;;;;;;;7.75;2.20;;;12.00;99.90;;;;;;6210849;23;20100;-83
2022/11/05 13:45:07;;;;;;;9.73;2.05;;;12.00;99.90;;;;;;6213611;23;20023;-86
2022/11/05 13:48:07;;;;;;;8.32;2.20;;;12.00;99.90;;;;;;6185509;23;20445;-85
2022/11/05 13:50:48;;;;;;;7.57;2.70;;;11.90;99.90;;;;;;6214497;23;20012;-87
2022/11/05 13:53:41;;;;;;;7.63;2.53;;;11.90;99.90;;;;;;6162333;23;20013;-84
2022/11/05 13:56:22;;;;;;;5.97;2.70;;;11.90;99.90;;;;;;6184341;23;20013;-83